sensor_id;sensor_type;location;lat;lon;timestamp;pressure;altitude;pressure_sealevel;temperature;humidity
57644;BME280;43474;46.510;6.686;2024-02-04T00:00:49;97739.94;;;2.65;100.00
57644;BME280;43474;46.510;6.686;2024-02-04T00:03:35;97775.34;;;2.77;100.00
57644;BME280;43474;46.510;6.686;2024-02-04T00:06:01;97783.03;;;2.78;100.00
57644;BME280;43474;46.510;6.686;2024-02-04T00:08:26;97774.53;;;2.76;100.00
57644;BME280;43474;46.510;6.686;2024-02-04T00:10:52;97753.94;;;2.55;100.00
57644;BME280;43474;46.510;6.686;2024-02-04T00:13:18;97759.28;;;2.72;100.00
57644;BME280;43474;46.510;6.686;2024-02-04T00:15:43;97744.00;;;2.59;100.00
57644;BME280;43474;46.510;6.686;2024-02-04T00:18:09;97758.88;;;2.84;100.00
57644;BME280;43474;46.510;6.686;2024-02-04T00:20:35;97732.28;;;2.71;100.00
57644;BME280;43474;46.510;6.686;2024-02-04T00:23:01;97738.03;;;2.75;100.00
57644;BME280;43474;46.510;6.686;2024-02-04T00:25:27;97728.84;;;2.71;100.00
57644;BME280;43474;46.510;6.686;2024-02-04T00:27:54;97728.94;;;2.87;100.00
57644;BME280;43474;46.510;6.686;2024-02-04T00:30:20;97692.97;;;2.63;100.00
57644;BME280;43474;46.510;6.686;2024-02-04T00:32:46;97726.03;;;2.90;100.00
57644;BME280;43474;46.510;6.686;2024-02-04T00:35:12;97712.13;;;2.90;100.00
57644;BME280;43474;46.510;6.686;2024-02-04T00:37:37;97724.94;;;3.01;100.00
57644;BME280;43474;46.510;6.686;2024-02-04T00:40:04;97705.53;;;2.85;100.00
57644;BME280;43474;46.510;6.686;2024-02-04T00:42:30;97689.78;;;2.77;100.00
57644;BME280;43474;46.510;6.686;2024-02-04T00:44:56;97722.78;;;2.96;100.00
57644;BME280;43474;46.510;6.686;2024-02-04T00:47:22;97764.13;;;3.19;100.00
57644;BME280;43474;46.510;6.686;2024-02-04T00:49:48;97734.22;;;2.95;100.00
57644;BME280;43474;46.510;6.686;2024-02-04T00:52:14;97696.47;;;2.72;100.00
57644;BME280;43474;46.510;6.686;2024-02-04T00:54:40;97681.69;;;2.63;100.00
57644;BME280;43474;46.510;6.686;2024-02-04T00:57:05;97714.16;;;2.78;100.00
57644;BME280;43474;46.510;6.686;2024-02-04T00:59:31;97735.22;;;2.94;100.00
57644;BME280;43474;46.510;6.686;2024-02-04T01:01:57;97713.00;;;2.72;100.00
57644;BME280;43474;46.510;6.686;2024-02-04T01:04:24;97707.72;;;2.64;100.00
57644;BME280;43474;46.510;6.686;2024-02-04T01:06:50;97768.22;;;2.87;100.00
57644;BME280;43474;46.510;6.686;2024-02-04T01:09:16;97764.31;;;2.91;100.00
57644;BME280;43474;46.510;6.686;2024-02-04T01:11:44;97741.66;;;2.82;100.00
57644;BME280;43474;46.510;6.686;2024-02-04T01:14:10;97767.34;;;3.04;100.00
57644;BME280;43474;46.510;6.686;2024-02-04T01:16:36;97716.22;;;2.66;100.00
57644;BME280;43474;46.510;6.686;2024-02-04T01:19:02;97724.97;;;2.75;100.00
57644;BME280;43474;46.510;6.686;2024-02-04T01:21:28;97710.81;;;2.59;100.00
57644;BME280;43474;46.510;6.686;2024-02-04T01:23:54;97770.38;;;2.92;100.00
57644;BME280;43474;46.510;6.686;2024-02-04T01:26:20;97739.50;;;2.69;100.00
57644;BME280;43474;46.510;6.686;2024-02-04T01:28:46;97742.59;;;2.73;100.00
57644;BME280;43474;46.510;6.686;2024-02-04T01:31:11;97731.66;;;2.77;100.00
57644;BME280;43474;46.510;6.686;2024-02-04T01:33:37;97732.81;;;2.75;100.00
57644;BME280;43474;46.510;6.686;2024-02-04T01:36:03;97779.72;;;2.94;100.00
57644;BME280;43474;46.510;6.686;2024-02-04T01:38:29;97755.28;;;2.85;100.00
57644;BME280;43474;46.510;6.686;2024-02-04T01:40:55;97727.16;;;2.62;100.00
57644;BME280;43474;46.510;6.686;2024-02-04T01:43:21;97726.72;;;2.48;100.00
57644;BME280;43474;46.510;6.686;2024-02-04T01:45:50;97780.63;;;2.85;100.00
57644;BME280;43474;46.510;6.686;2024-02-04T01:48:21;97752.22;;;2.64;100.00
57644;BME280;43474;46.510;6.686;2024-02-04T01:50:48;97759.25;;;2.64;100.00
57644;BME280;43474;46.510;6.686;2024-02-04T01:53:17;97712.94;;;2.38;100.00
57644;BME280;43474;46.510;6.686;2024-02-04T01:55:43;97756.56;;;2.55;100.00
57644;BME280;43474;46.510;6.686;2024-02-04T01:58:12;97711.38;;;2.27;100.00
57644;BME280;43474;46.510;6.686;2024-02-04T02:00:38;97725.19;;;2.38;100.00
57644;BME280;43474;46.510;6.686;2024-02-04T02:03:06;97725.56;;;2.43;100.00
57644;BME280;43474;46.510;6.686;2024-02-04T02:05:32;97711.63;;;2.34;100.00
57644;BME280;43474;46.510;6.686;2024-02-04T02:07:59;97747.78;;;2.65;100.00
57644;BME280;43474;46.510;6.686;2024-02-04T02:10:27;97734.00;;;2.54;100.00
57644;BME280;43474;46.510;6.686;2024-02-04T02:13:00;97745.56;;;2.52;100.00
57644;BME280;43474;46.510;6.686;2024-02-04T02:15:37;97694.31;;;2.15;100.00
57644;BME280;43474;46.510;6.686;2024-02-04T02:18:49;97758.91;;;2.41;100.00
57644;BME280;43474;46.510;6.686;2024-02-04T02:21:38;97685.66;;;1.97;100.00
57644;BME280;43474;46.510;6.686;2024-02-04T02:24:14;97700.34;;;2.16;100.00
57644;BME280;43474;46.510;6.686;2024-02-04T02:26:41;97757.19;;;2.49;100.00
57644;BME280;43474;46.510;6.686;2024-02-04T02:29:09;97711.03;;;2.22;100.00
57644;BME280;43474;46.510;6.686;2024-02-04T02:31:36;97703.09;;;2.58;100.00
57644;BME280;43474;46.510;6.686;2024-02-04T02:34:02;97714.34;;;2.50;100.00
57644;BME280;43474;46.510;6.686;2024-02-04T02:36:34;97689.72;;;2.17;100.00
57644;BME280;43474;46.510;6.686;2024-02-04T02:39:09;97696.84;;;2.25;100.00
57644;BME280;43474;46.510;6.686;2024-02-04T02:41:42;97746.56;;;2.51;100.00
57644;BME280;43474;46.510;6.686;2024-02-04T02:44:09;97662.94;;;1.97;100.00
57644;BME280;43474;46.510;6.686;2024-02-04T02:46:36;97711.84;;;2.23;100.00
57644;BME280;43474;46.510;6.686;2024-02-04T02:49:05;97690.97;;;2.05;100.00
57644;BME280;43474;46.510;6.686;2024-02-04T02:51:31;97694.69;;;2.02;100.00
57644;BME280;43474;46.510;6.686;2024-02-04T02:54:02;97700.16;;;2.09;100.00
57644;BME280;43474;46.510;6.686;2024-02-04T02:56:30;97729.75;;;2.36;100.00
57644;BME280;43474;46.510;6.686;2024-02-04T02:58:56;97684.09;;;2.04;100.00
57644;BME280;43474;46.510;6.686;2024-02-04T03:01:21;97684.59;;;2.07;100.00
57644;BME280;43474;46.510;6.686;2024-02-04T03:03:49;97677.44;;;2.10;100.00
57644;BME280;43474;46.510;6.686;2024-02-04T03:06:15;97661.41;;;1.87;100.00
57644;BME280;43474;46.510;6.686;2024-02-04T03:08:45;97711.03;;;2.22;100.00
57644;BME280;43474;46.510;6.686;2024-02-04T03:11:11;97704.53;;;2.08;100.00
57644;BME280;43474;46.510;6.686;2024-02-04T03:13:40;97659.81;;;1.94;100.00
57644;BME280;43474;46.510;6.686;2024-02-04T03:16:12;97690.97;;;2.05;100.00
57644;BME280;43474;46.510;6.686;2024-02-04T03:18:42;97727.59;;;2.31;100.00
57644;BME280;43474;46.510;6.686;2024-02-04T03:21:16;97743.50;;;2.38;100.00
57644;BME280;43474;46.510;6.686;2024-02-04T03:23:42;97709.19;;;2.15;100.00
57644;BME280;43474;46.510;6.686;2024-02-04T03:26:09;97717.03;;;2.15;100.00
57644;BME280;43474;46.510;6.686;2024-02-04T03:28:35;97727.63;;;2.13;100.00
57644;BME280;43474;46.510;6.686;2024-02-04T03:31:02;97704.56;;;1.91;100.00
57644;BME280;43474;46.510;6.686;2024-02-04T03:33:28;97711.13;;;1.95;100.00
57644;BME280;43474;46.510;6.686;2024-02-04T03:35:54;97706.84;;;1.94;100.00
57644;BME280;43474;46.510;6.686;2024-02-04T03:38:20;97713.16;;;2.01;100.00
57644;BME280;43474;46.510;6.686;2024-02-04T03:40:47;97725.06;;;2.03;100.00
57644;BME280;43474;46.510;6.686;2024-02-04T03:43:15;97688.06;;;1.72;100.00
57644;BME280;43474;46.510;6.686;2024-02-04T03:45:41;97682.38;;;1.77;100.00
57644;BME280;43474;46.510;6.686;2024-02-04T03:48:09;97697.47;;;1.83;100.00
57644;BME280;43474;46.510;6.686;2024-02-04T03:50:36;97713.84;;;1.85;100.00
57644;BME280;43474;46.510;6.686;2024-02-04T03:53:02;97681.56;;;1.59;100.00
57644;BME280;43474;46.510;6.686;2024-02-04T03:55:28;97690.22;;;1.59;100.00
57644;BME280;43474;46.510;6.686;2024-02-04T03:57:54;97736.81;;;1.81;100.00
57644;BME280;43474;46.510;6.686;2024-02-04T04:00:20;97734.66;;;1.77;100.00
57644;BME280;43474;46.510;6.686;2024-02-04T04:02:46;97723.72;;;1.64;100.00
57644;BME280;43474;46.510;6.686;2024-02-04T04:05:12;97716.19;;;1.61;100.00
57644;BME280;43474;46.510;6.686;2024-02-04T04:07:39;97752.94;;;1.77;100.00
57644;BME280;43474;46.510;6.686;2024-02-04T04:10:05;97762.28;;;1.79;100.00
57644;BME280;43474;46.510;6.686;2024-02-04T04:12:32;97780.16;;;1.84;100.00
57644;BME280;43474;46.510;6.686;2024-02-04T04:14:57;97759.38;;;1.65;100.00
57644;BME280;43474;46.510;6.686;2024-02-04T04:17:24;97757.25;;;1.50;100.00
57644;BME280;43474;46.510;6.686;2024-02-04T04:19:49;97755.22;;;1.44;100.00
57644;BME280;43474;46.510;6.686;2024-02-04T04:22:17;97764.53;;;1.47;100.00
57644;BME280;43474;46.510;6.686;2024-02-04T04:24:42;97819.84;;;1.70;100.00
57644;BME280;43474;46.510;6.686;2024-02-04T04:27:09;97775.53;;;1.50;100.00
57644;BME280;43474;46.510;6.686;2024-02-04T04:29:34;97800.09;;;1.58;100.00
57644;BME280;43474;46.510;6.686;2024-02-04T04:32:00;97797.03;;;1.62;100.00
57644;BME280;43474;46.510;6.686;2024-02-04T04:34:26;97782.50;;;1.60;100.00
57644;BME280;43474;46.510;6.686;2024-02-04T04:36:52;97806.47;;;1.73;100.00
57644;BME280;43474;46.510;6.686;2024-02-04T04:39:18;97810.50;;;1.67;100.00
57644;BME280;43474;46.510;6.686;2024-02-04T04:41:44;97803.78;;;1.65;100.00
57644;BME280;43474;46.510;6.686;2024-02-04T04:44:13;97833.41;;;2.01;100.00
57644;BME280;43474;46.510;6.686;2024-02-04T04:46:39;97807.16;;;1.75;100.00
57644;BME280;43474;46.510;6.686;2024-02-04T04:49:07;97807.59;;;1.70;100.00
57644;BME280;43474;46.510;6.686;2024-02-04T04:51:33;97802.22;;;1.72;100.00
57644;BME280;43474;46.510;6.686;2024-02-04T04:53:59;97786.88;;;1.59;100.00
57644;BME280;43474;46.510;6.686;2024-02-04T04:56:25;97780.97;;;1.57;100.00
57644;BME280;43474;46.510;6.686;2024-02-04T04:58:50;97774.16;;;1.46;100.00
57644;BME280;43474;46.510;6.686;2024-02-04T05:01:16;97763.63;;;1.38;100.00
57644;BME280;43474;46.510;6.686;2024-02-04T05:03:43;97761.81;;;1.39;100.00
57644;BME280;43474;46.510;6.686;2024-02-04T05:06:12;97768.28;;;1.44;100.00
57644;BME280;43474;46.510;6.686;2024-02-04T05:08:37;97790.06;;;1.53;100.00
57644;BME280;43474;46.510;6.686;2024-02-04T05:11:04;97806.69;;;1.62;100.00
57644;BME280;43474;46.510;6.686;2024-02-04T05:13:29;97786.25;;;1.47;100.00
57644;BME280;43474;46.510;6.686;2024-02-04T05:15:56;97774.44;;;1.43;100.00
57644;BME280;43474;46.510;6.686;2024-02-04T05:18:21;97765.25;;;1.39;100.00
57644;BME280;43474;46.510;6.686;2024-02-04T05:20:48;97747.72;;;1.32;100.00
57644;BME280;43474;46.510;6.686;2024-02-04T05:23:14;97776.25;;;1.43;100.00
57644;BME280;43474;46.510;6.686;2024-02-04T05:25:40;97785.28;;;1.48;100.00
57644;BME280;43474;46.510;6.686;2024-02-04T05:28:08;97785.28;;;1.48;100.00
57644;BME280;43474;46.510;6.686;2024-02-04T05:30:35;97786.69;;;1.43;100.00
57644;BME280;43474;46.510;6.686;2024-02-04T05:33:03;97739.94;;;1.22;100.00
57644;BME280;43474;46.510;6.686;2024-02-04T05:35:29;97754.88;;;1.29;100.00
57644;BME280;43474;46.510;6.686;2024-02-04T05:37:55;97760.97;;;1.20;100.00
57644;BME280;43474;46.510;6.686;2024-02-04T05:40:21;97730.56;;;1.01;100.00
57644;BME280;43474;46.510;6.686;2024-02-04T05:42:47;97765.66;;;1.17;100.00
57644;BME280;43474;46.510;6.686;2024-02-04T05:45:13;97791.38;;;1.39;100.00
57644;BME280;43474;46.510;6.686;2024-02-04T05:47:41;97788.75;;;1.39;100.00
57644;BME280;43474;46.510;6.686;2024-02-04T05:50:07;97746.78;;;1.23;100.00
57644;BME280;43474;46.510;6.686;2024-02-04T05:52:45;97743.38;;;1.22;100.00
57644;BME280;43474;46.510;6.686;2024-02-04T05:55:11;97743.16;;;1.34;100.00
57644;BME280;43474;46.510;6.686;2024-02-04T05:57:37;97740.97;;;1.57;100.00
57644;BME280;43474;46.510;6.686;2024-02-04T06:00:05;97753.69;;;1.87;100.00
57644;BME280;43474;46.510;6.686;2024-02-04T06:02:34;97771.03;;;2.24;100.00
57644;BME280;43474;46.510;6.686;2024-02-04T06:05:06;97745.09;;;2.30;100.00
57644;BME280;43474;46.510;6.686;2024-02-04T06:07:34;97738.00;;;2.23;100.00
57644;BME280;43474;46.510;6.686;2024-02-04T06:10:00;97771.00;;;2.42;100.00
57644;BME280;43474;46.510;6.686;2024-02-04T06:12:29;97749.25;;;2.41;100.00
57644;BME280;43474;46.510;6.686;2024-02-04T06:14:58;97811.78;;;2.96;100.00
57644;BME280;43474;46.510;6.686;2024-02-04T06:17:24;97742.91;;;2.70;100.00
57644;BME280;43474;46.510;6.686;2024-02-04T06:19:51;97742.91;;;2.70;100.00
57644;BME280;43474;46.510;6.686;2024-02-04T06:22:22;97775.31;;;2.95;100.00
57644;BME280;43474;46.510;6.686;2024-02-04T06:24:51;97820.31;;;3.24;100.00
57644;BME280;43474;46.510;6.686;2024-02-04T06:27:27;97753.38;;;2.96;100.00
57644;BME280;43474;46.510;6.686;2024-02-04T06:29:56;97787.03;;;3.17;100.00
57644;BME280;43474;46.510;6.686;2024-02-04T06:32:23;97765.56;;;3.13;100.00
57644;BME280;43474;46.510;6.686;2024-02-04T06:34:51;97762.00;;;3.14;100.00
57644;BME280;43474;46.510;6.686;2024-02-04T06:37:17;97834.38;;;3.57;100.00
57644;BME280;43474;46.510;6.686;2024-02-04T06:39:44;97772.66;;;3.21;100.00
57644;BME280;43474;46.510;6.686;2024-02-04T06:42:10;97822.78;;;3.60;100.00
57644;BME280;43474;46.510;6.686;2024-02-04T06:44:37;97792.03;;;3.36;100.00
57644;BME280;43474;46.510;6.686;2024-02-04T06:47:03;97769.03;;;3.22;100.00
57644;BME280;43474;46.510;6.686;2024-02-04T06:49:30;97789.59;;;3.34;100.00
57644;BME280;43474;46.510;6.686;2024-02-04T06:51:59;97828.78;;;3.52;100.00
57644;BME280;43474;46.510;6.686;2024-02-04T06:54:25;97771.47;;;3.15;100.00
57644;BME280;43474;46.510;6.686;2024-02-04T06:56:52;97748.84;;;3.06;100.00
57644;BME280;43474;46.510;6.686;2024-02-04T06:59:19;97759.19;;;3.16;100.00
57644;BME280;43474;46.510;6.686;2024-02-04T07:01:44;97781.22;;;3.31;100.00
57644;BME280;43474;46.510;6.686;2024-02-04T07:04:11;97765.44;;;3.23;100.00
57644;BME280;43474;46.510;6.686;2024-02-04T07:06:37;97770.25;;;3.35;100.00
57644;BME280;43474;46.510;6.686;2024-02-04T07:09:03;97784.25;;;3.52;100.00
57644;BME280;43474;46.510;6.686;2024-02-04T07:11:29;97779.13;;;3.43;100.00
57644;BME280;43474;46.510;6.686;2024-02-04T07:13:55;97784.59;;;3.57;100.00
57644;BME280;43474;46.510;6.686;2024-02-04T07:16:25;97829.06;;;3.75;100.00
57644;BME280;43474;46.510;6.686;2024-02-04T07:18:52;97783.28;;;3.53;100.00
57644;BME280;43474;46.510;6.686;2024-02-04T07:21:17;97797.56;;;3.67;100.00
57644;BME280;43474;46.510;6.686;2024-02-04T07:23:43;97794.31;;;3.73;100.00
57644;BME280;43474;46.510;6.686;2024-02-04T07:26:09;97786.47;;;3.73;100.00
57644;BME280;43474;46.510;6.686;2024-02-04T07:28:35;97773.81;;;3.69;100.00
57644;BME280;43474;46.510;6.686;2024-02-04T07:31:02;97758.41;;;3.66;100.00
57644;BME280;43474;46.510;6.686;2024-02-04T07:33:28;97746.41;;;3.55;100.00
57644;BME280;43474;46.510;6.686;2024-02-04T07:35:56;97787.44;;;3.80;100.00
57644;BME280;43474;46.510;6.686;2024-02-04T07:38:22;97759.41;;;3.65;100.00
57644;BME280;43474;46.510;6.686;2024-02-04T07:40:48;97760.72;;;3.69;100.00
57644;BME280;43474;46.510;6.686;2024-02-04T07:43:13;97792.25;;;3.93;100.00
57644;BME280;43474;46.510;6.686;2024-02-04T07:45:39;97789.81;;;4.08;100.00
57644;BME280;43474;46.510;6.686;2024-02-04T07:48:05;97764.84;;;3.87;100.00
57644;BME280;43474;46.510;6.686;2024-02-04T07:50:31;97777.50;;;4.00;100.00
57644;BME280;43474;46.510;6.686;2024-02-04T07:52:57;97808.03;;;4.26;100.00
57644;BME280;43474;46.510;6.686;2024-02-04T07:55:23;97786.00;;;4.02;100.00
57644;BME280;43474;46.510;6.686;2024-02-04T07:57:49;97794.91;;;4.09;100.00
57644;BME280;43474;46.510;6.686;2024-02-04T08:00:15;97832.50;;;4.43;100.00
57644;BME280;43474;46.510;6.686;2024-02-04T08:02:44;97786.53;;;4.06;100.00
57644;BME280;43474;46.510;6.686;2024-02-04T08:05:09;97786.94;;;3.77;100.00
57644;BME280;43474;46.510;6.686;2024-02-04T08:07:35;97810.25;;;3.96;100.00
57644;BME280;43474;46.510;6.686;2024-02-04T08:10:05;97818.84;;;4.14;100.00
57644;BME280;43474;46.510;6.686;2024-02-04T08:12:36;97795.69;;;3.94;100.00
57644;BME280;43474;46.510;6.686;2024-02-04T08:15:02;97781.22;;;3.81;100.00
57644;BME280;43474;46.510;6.686;2024-02-04T08:17:28;97816.19;;;3.98;100.00
57644;BME280;43474;46.510;6.686;2024-02-04T08:19:57;97798.66;;;4.07;100.00
57644;BME280;43474;46.510;6.686;2024-02-04T08:22:23;97802.59;;;4.03;100.00
57644;BME280;43474;46.510;6.686;2024-02-04T08:24:49;97797.34;;;4.11;100.00
57644;BME280;43474;46.510;6.686;2024-02-04T08:27:19;97812.97;;;4.53;100.00
57644;BME280;43474;46.510;6.686;2024-02-04T08:29:45;97813.78;;;4.46;100.00
57644;BME280;43474;46.510;6.686;2024-02-04T08:32:11;97822.78;;;4.27;100.00
57644;BME280;43474;46.510;6.686;2024-02-04T08:34:38;97808.06;;;4.34;100.00
57644;BME280;43474;46.510;6.686;2024-02-04T08:37:07;97798.53;;;4.41;100.00
57644;BME280;43474;46.510;6.686;2024-02-04T08:39:36;97803.09;;;4.14;100.00
57644;BME280;43474;46.510;6.686;2024-02-04T08:42:04;97799.00;;;4.20;100.00
57644;BME280;43474;46.510;6.686;2024-02-04T08:44:32;97798.16;;;4.11;100.00
57644;BME280;43474;46.510;6.686;2024-02-04T08:47:10;97798.19;;;4.20;100.00
57644;BME280;43474;46.510;6.686;2024-02-04T08:49:39;97819.38;;;4.34;100.00
57644;BME280;43474;46.510;6.686;2024-02-04T08:52:06;97799.34;;;4.50;100.00
57644;BME280;43474;46.510;6.686;2024-02-04T08:54:32;97811.34;;;4.60;100.00
57644;BME280;43474;46.510;6.686;2024-02-04T08:57:01;97819.19;;;4.77;100.00
57644;BME280;43474;46.510;6.686;2024-02-04T08:59:27;97784.09;;;4.70;100.00
57644;BME280;43474;46.510;6.686;2024-02-04T09:01:53;97815.09;;;4.90;100.00
57644;BME280;43474;46.510;6.686;2024-02-04T09:04:19;97807.84;;;5.01;100.00
57644;BME280;43474;46.510;6.686;2024-02-04T09:06:46;97779.63;;;5.03;100.00
57644;BME280;43474;46.510;6.686;2024-02-04T09:09:13;97792.94;;;4.93;100.00
57644;BME280;43474;46.510;6.686;2024-02-04T09:11:39;97814.41;;;5.13;100.00
57644;BME280;43474;46.510;6.686;2024-02-04T09:14:05;97813.53;;;5.29;100.00
57644;BME280;43474;46.510;6.686;2024-02-04T09:16:33;97806.53;;;5.13;100.00
57644;BME280;43474;46.510;6.686;2024-02-04T09:19:01;97829.50;;;5.19;100.00
57644;BME280;43474;46.510;6.686;2024-02-04T09:21:28;97846.22;;;5.26;100.00
57644;BME280;43474;46.510;6.686;2024-02-04T09:23:57;97794.56;;;5.02;100.00
57644;BME280;43474;46.510;6.686;2024-02-04T09:26:28;97832.06;;;5.43;100.00
57644;BME280;43474;46.510;6.686;2024-02-04T09:28:54;97815.75;;;5.56;100.00
57644;BME280;43474;46.510;6.686;2024-02-04T09:31:21;97786.06;;;5.79;100.00
57644;BME280;43474;46.510;6.686;2024-02-04T09:33:54;97790.31;;;5.88;100.00
57644;BME280;43474;46.510;6.686;2024-02-04T09:36:20;97775.50;;;5.87;100.00
57644;BME280;43474;46.510;6.686;2024-02-04T09:38:51;97842.13;;;6.41;100.00
57644;BME280;43474;46.510;6.686;2024-02-04T09:41:17;97804.31;;;6.11;100.00
57644;BME280;43474;46.510;6.686;2024-02-04T09:43:45;97811.13;;;6.29;100.00
57644;BME280;43474;46.510;6.686;2024-02-04T09:46:12;97828.88;;;6.58;100.00
57644;BME280;43474;46.510;6.686;2024-02-04T09:48:43;97783.22;;;5.88;100.00
57644;BME280;43474;46.510;6.686;2024-02-04T09:51:11;97802.66;;;6.18;100.00
57644;BME280;43474;46.510;6.686;2024-02-04T09:53:45;97811.75;;;6.08;100.00
57644;BME280;43474;46.510;6.686;2024-02-04T09:56:12;97810.34;;;6.20;100.00
57644;BME280;43474;46.510;6.686;2024-02-04T09:58:39;97809.56;;;6.42;100.00
57644;BME280;43474;46.510;6.686;2024-02-04T10:01:06;97771.50;;;6.45;100.00
57644;BME280;43474;46.510;6.686;2024-02-04T10:03:35;97839.56;;;6.79;100.00
57644;BME280;43474;46.510;6.686;2024-02-04T10:06:02;97844.13;;;6.85;100.00
57644;BME280;43474;46.510;6.686;2024-02-04T10:08:30;97803.88;;;6.77;100.00
57644;BME280;43474;46.510;6.686;2024-02-04T10:10:57;97800.69;;;6.96;100.00
57644;BME280;43474;46.510;6.686;2024-02-04T10:13:24;97788.28;;;7.34;100.00
57644;BME280;43474;46.510;6.686;2024-02-04T10:15:51;97801.09;;;7.67;100.00
57644;BME280;43474;46.510;6.686;2024-02-04T10:18:18;97795.56;;;7.47;100.00
57644;BME280;43474;46.510;6.686;2024-02-04T10:20:47;97824.66;;;7.54;100.00
57644;BME280;43474;46.510;6.686;2024-02-04T10:23:17;97776.03;;;6.74;100.00
57644;BME280;43474;46.510;6.686;2024-02-04T10:25:43;97772.31;;;6.68;100.00
57644;BME280;43474;46.510;6.686;2024-02-04T10:28:12;97777.00;;;7.25;100.00
57644;BME280;43474;46.510;6.686;2024-02-04T10:30:40;97788.19;;;7.28;100.00
57644;BME280;43474;46.510;6.686;2024-02-04T10:33:06;97840.00;;;7.20;100.00
57644;BME280;43474;46.510;6.686;2024-02-04T10:35:33;97807.41;;;7.51;100.00
57644;BME280;43474;46.510;6.686;2024-02-04T10:38:02;97798.88;;;7.85;100.00
57644;BME280;43474;46.510;6.686;2024-02-04T10:40:29;97776.34;;;8.04;100.00
57644;BME280;43474;46.510;6.686;2024-02-04T10:42:58;97785.41;;;8.52;100.00
57644;BME280;43474;46.510;6.686;2024-02-04T10:45:29;97813.41;;;9.24;100.00
57644;BME280;43474;46.510;6.686;2024-02-04T10:48:00;97837.88;;;9.33;100.00
57644;BME280;43474;46.510;6.686;2024-02-04T10:50:33;97790.81;;;8.94;100.00
57644;BME280;43474;46.510;6.686;2024-02-04T10:53:04;97817.53;;;9.33;100.00
57644;BME280;43474;46.510;6.686;2024-02-04T10:55:41;97793.13;;;9.79;100.00
57644;BME280;43474;46.510;6.686;2024-02-04T10:58:12;97789.00;;;10.12;100.00
57644;BME280;43474;46.510;6.686;2024-02-04T11:00:46;97775.66;;;9.44;100.00
57644;BME280;43474;46.510;6.686;2024-02-04T11:03:17;97754.72;;;8.79;100.00
57644;BME280;43474;46.510;6.686;2024-02-04T11:05:44;97806.84;;;8.86;100.00
57644;BME280;43474;46.510;6.686;2024-02-04T11:08:13;97775.06;;;9.07;100.00
57644;BME280;43474;46.510;6.686;2024-02-04T11:10:39;97815.97;;;9.11;100.00
57644;BME280;43474;46.510;6.686;2024-02-04T11:13:06;97780.00;;;8.89;100.00
57644;BME280;43474;46.510;6.686;2024-02-04T11:15:36;97775.78;;;8.66;100.00
57644;BME280;43474;46.510;6.686;2024-02-04T11:18:07;97800.81;;;8.49;100.00
57644;BME280;43474;46.510;6.686;2024-02-04T11:26:37;97779.97;;;8.39;100.00
57644;BME280;43474;46.510;6.686;2024-02-04T11:29:07;97770.25;;;8.25;100.00
57644;BME280;43474;46.510;6.686;2024-02-04T11:31:39;97801.53;;;8.21;100.00
57644;BME280;43474;46.510;6.686;2024-02-04T11:34:16;97754.06;;;8.49;100.00
57644;BME280;43474;46.510;6.686;2024-02-04T11:36:56;97761.59;;;8.10;100.00
57644;BME280;43474;46.510;6.686;2024-02-04T11:47:00;97762.75;;;9.21;100.00
57644;BME280;43474;46.510;6.686;2024-02-04T11:49:39;97692.47;;;9.05;100.00
57644;BME280;43474;46.510;6.686;2024-02-04T11:52:18;97751.22;;;9.35;100.00
57644;BME280;43474;46.510;6.686;2024-02-04T11:55:18;97684.31;;;8.44;100.00
57644;BME280;43474;46.510;6.686;2024-02-04T11:58:01;97696.97;;;8.76;100.00
57644;BME280;43474;46.510;6.686;2024-02-04T12:01:09;97706.66;;;9.39;100.00
57644;BME280;43474;46.510;6.686;2024-02-04T12:03:51;97680.47;;;9.09;100.00
57644;BME280;43474;46.510;6.686;2024-02-04T12:06:29;97739.81;;;9.89;100.00
57644;BME280;43474;46.510;6.686;2024-02-04T12:09:01;97734.91;;;9.79;100.00
57644;BME280;43474;46.510;6.686;2024-02-04T12:11:37;97717.22;;;9.32;100.00
57644;BME280;43474;46.510;6.686;2024-02-04T12:14:42;97707.78;;;9.16;100.00
57644;BME280;43474;46.510;6.686;2024-02-04T12:17:23;97731.81;;;9.21;100.00
57644;BME280;43474;46.510;6.686;2024-02-04T12:20:03;97713.00;;;9.10;100.00
57644;BME280;43474;46.510;6.686;2024-02-04T12:22:45;97682.75;;;9.19;100.00
57644;BME280;43474;46.510;6.686;2024-02-04T12:44:20;97669.44;;;10.34;100.00
57644;BME280;43474;46.510;6.686;2024-02-04T12:46:55;97720.56;;;10.88;100.00
57644;BME280;43474;46.510;6.686;2024-02-04T12:49:27;97687.78;;;10.49;100.00
57644;BME280;43474;46.510;6.686;2024-02-04T12:52:04;97660.06;;;10.45;100.00
57644;BME280;43474;46.510;6.686;2024-02-04T12:54:43;97656.16;;;10.68;100.00
57644;BME280;43474;46.510;6.686;2024-02-04T12:57:13;97677.31;;;10.94;100.00
57644;BME280;43474;46.510;6.686;2024-02-04T12:59:50;97680.25;;;10.40;100.00
57644;BME280;43474;46.510;6.686;2024-02-04T13:02:16;97669.63;;;10.66;100.00
57644;BME280;43474;46.510;6.686;2024-02-04T13:04:45;97715.28;;;10.95;100.00
57644;BME280;43474;46.510;6.686;2024-02-04T13:07:14;97650.50;;;10.24;100.00
57644;BME280;43474;46.510;6.686;2024-02-04T13:09:56;97672.84;;;10.08;100.00
57644;BME280;43474;46.510;6.686;2024-02-04T13:12:22;97671.25;;;10.34;100.00
57644;BME280;43474;46.510;6.686;2024-02-04T13:14:48;97632.91;;;10.56;100.00
57644;BME280;43474;46.510;6.686;2024-02-04T13:17:14;97665.50;;;10.90;100.00
57644;BME280;43474;46.510;6.686;2024-02-04T13:19:41;97662.41;;;10.93;100.00
57644;BME280;43474;46.510;6.686;2024-02-04T13:22:07;97661.03;;;10.77;100.00
57644;BME280;43474;46.510;6.686;2024-02-04T13:24:37;97631.66;;;10.85;100.00
57644;BME280;43474;46.510;6.686;2024-02-04T13:27:03;97643.03;;;11.51;100.00
57644;BME280;43474;46.510;6.686;2024-02-04T13:29:32;97622.13;;;11.23;100.00
57644;BME280;43474;46.510;6.686;2024-02-04T13:31:57;97641.09;;;11.26;100.00
57644;BME280;43474;46.510;6.686;2024-02-04T13:34:24;97631.91;;;11.29;100.00
57644;BME280;43474;46.510;6.686;2024-02-04T13:36:49;97666.25;;;11.62;100.00
57644;BME280;43474;46.510;6.686;2024-02-04T13:39:17;97627.09;;;11.06;100.00